sensor_id;sensor_type;location;lat;lon;timestamp;pressure;altitude;pressure_sealevel;temperature;humidity
5755;BME280;2902;42.130;24.732;2023-02-21T00:02:42;99793.13;;;10.65;40.63
5755;BME280;2902;42.130;24.732;2023-02-21T00:05:26;99789.19;;;10.61;41.26
5755;BME280;2902;42.130;24.732;2023-02-21T00:08:10;99794.13;;;10.64;40.93
5755;BME280;2902;42.130;24.732;2023-02-21T00:10:54;99793.22;;;10.57;40.83
5755;BME280;2902;42.130;24.732;2023-02-21T00:13:39;99789.78;;;10.56;40.99
5755;BME280;2902;42.130;24.732;2023-02-21T00:16:23;99779.94;;;10.57;40.06
5755;BME280;2902;42.130;24.732;2023-02-21T00:19:07;99783.81;;;10.54;40.18
5755;BME280;2902;42.130;24.732;2023-02-21T00:21:52;99788.38;;;10.60;40.36
5755;BME280;2902;42.130;24.732;2023-02-21T00:24:36;99782.66;;;10.63;39.22
5755;BME280;2902;42.130;24.732;2023-02-21T00:27:20;99781.50;;;10.66;39.48
5755;BME280;2902;42.130;24.732;2023-02-21T00:30:07;99790.78;;;10.76;39.18
5755;BME280;2902;42.130;24.732;2023-02-21T00:32:51;99776.69;;;10.76;39.14
5755;BME280;2902;42.130;24.732;2023-02-21T00:35:35;99768.06;;;10.74;39.27
5755;BME280;2902;42.130;24.732;2023-02-21T00:38:19;99767.31;;;10.80;39.19
5755;BME280;2902;42.130;24.732;2023-02-21T00:41:03;99775.91;;;10.82;39.39
5755;BME280;2902;42.130;24.732;2023-02-21T00:43:47;99763.44;;;10.82;38.94
5755;BME280;2902;42.130;24.732;2023-02-21T00:46:33;99767.75;;;10.83;39.19
5755;BME280;2902;42.130;24.732;2023-02-21T00:49:18;99767.38;;;10.86;38.93
5755;BME280;2902;42.130;24.732;2023-02-21T00:52:03;99751.25;;;10.88;38.71
5755;BME280;2902;42.130;24.732;2023-02-21T00:54:47;99749.97;;;10.84;38.70
5755;BME280;2902;42.130;24.732;2023-02-21T00:57:30;99743.63;;;10.85;38.91
5755;BME280;2902;42.130;24.732;2023-02-21T01:00:18;99736.75;;;10.90;38.34
5755;BME280;2902;42.130;24.732;2023-02-21T01:03:04;99733.06;;;10.91;38.43
5755;BME280;2902;42.130;24.732;2023-02-21T01:05:49;99731.00;;;10.87;38.69
5755;BME280;2902;42.130;24.732;2023-02-21T01:08:33;99729.34;;;10.86;38.29
5755;BME280;2902;42.130;24.732;2023-02-21T01:11:19;99725.22;;;10.83;38.38
5755;BME280;2902;42.130;24.732;2023-02-21T01:14:05;99722.19;;;10.86;38.54
5755;BME280;2902;42.130;24.732;2023-02-21T01:16:49;99712.78;;;10.84;38.16
5755;BME280;2902;42.130;24.732;2023-02-21T01:19:35;99683.00;;;10.67;38.84
5755;BME280;2902;42.130;24.732;2023-02-21T01:22:19;99703.78;;;10.85;38.57
5755;BME280;2902;42.130;24.732;2023-02-21T01:25:04;99691.00;;;10.95;38.03
5755;BME280;2902;42.130;24.732;2023-02-21T01:27:48;99689.53;;;10.92;38.12
5755;BME280;2902;42.130;24.732;2023-02-21T01:30:32;99682.81;;;10.96;38.03
5755;BME280;2902;42.130;24.732;2023-02-21T01:33:16;99679.97;;;10.98;38.10
5755;BME280;2902;42.130;24.732;2023-02-21T01:36:03;99683.88;;;11.02;37.81
5755;BME280;2902;42.130;24.732;2023-02-21T01:38:47;99688.56;;;11.00;38.20
5755;BME280;2902;42.130;24.732;2023-02-21T01:41:31;99673.88;;;11.04;38.40
5755;BME280;2902;42.130;24.732;2023-02-21T01:44:31;99673.00;;;10.97;38.65
5755;BME280;2902;42.130;24.732;2023-02-21T01:47:16;99678.56;;;11.02;38.50
5755;BME280;2902;42.130;24.732;2023-02-21T01:50:03;99663.25;;;11.04;38.77
5755;BME280;2902;42.130;24.732;2023-02-21T01:52:48;99667.34;;;11.07;38.26
5755;BME280;2902;42.130;24.732;2023-02-21T01:55:33;99669.41;;;11.11;38.67
5755;BME280;2902;42.130;24.732;2023-02-21T01:58:20;99667.00;;;11.16;38.62
5755;BME280;2902;42.130;24.732;2023-02-21T02:01:06;99664.53;;;11.15;38.39
5755;BME280;2902;42.130;24.732;2023-02-21T02:03:53;99669.03;;;11.14;38.36
5755;BME280;2902;42.130;24.732;2023-02-21T02:06:38;99666.59;;;11.19;38.03
5755;BME280;2902;42.130;24.732;2023-02-21T02:09:23;99654.56;;;11.23;38.66
5755;BME280;2902;42.130;24.732;2023-02-21T02:12:29;99653.56;;;11.24;38.03
5755;BME280;2902;42.130;24.732;2023-02-21T02:15:17;99629.78;;;11.16;38.71
5755;BME280;2902;42.130;24.732;2023-02-21T02:18:06;99629.78;;;11.16;38.13
5755;BME280;2902;42.130;24.732;2023-02-21T02:20:54;99623.16;;;10.99;38.40
5755;BME280;2902;42.130;24.732;2023-02-21T02:26:57;99623.94;;;10.99;38.12
5755;BME280;2902;42.130;24.732;2023-02-21T02:32:55;99627.47;;;11.07;38.15
5755;BME280;2902;42.130;24.732;2023-02-21T02:35:27;99625.81;;;10.99;38.84
5755;BME280;2902;42.130;24.732;2023-02-21T02:37:59;99618.66;;;11.06;38.34
5755;BME280;2902;42.130;24.732;2023-02-21T02:40:31;99612.25;;;10.94;38.61
5755;BME280;2902;42.130;24.732;2023-02-21T02:43:06;99616.59;;;10.95;38.81
5755;BME280;2902;42.130;24.732;2023-02-21T02:45:39;99613.28;;;10.93;39.08
5755;BME280;2902;42.130;24.732;2023-02-21T02:48:14;99613.66;;;10.90;38.87
5755;BME280;2902;42.130;24.732;2023-02-21T02:50:45;99616.72;;;10.87;39.00
5755;BME280;2902;42.130;24.732;2023-02-21T02:53:15;99609.16;;;10.84;39.27
5755;BME280;2902;42.130;24.732;2023-02-21T02:55:45;99617.94;;;10.84;39.12
5755;BME280;2902;42.130;24.732;2023-02-21T02:58:14;99609.56;;;10.87;38.96
5755;BME280;2902;42.130;24.732;2023-02-21T03:00:46;99602.19;;;10.83;39.20
5755;BME280;2902;42.130;24.732;2023-02-21T03:06:19;99602.84;;;10.91;38.96
5755;BME280;2902;42.130;24.732;2023-02-21T03:08:54;99599.38;;;10.91;39.05
5755;BME280;2902;42.130;24.732;2023-02-21T03:11:24;99598.97;;;10.94;39.17
5755;BME280;2902;42.130;24.732;2023-02-21T03:13:55;99604.44;;;10.86;39.14
5755;BME280;2902;42.130;24.732;2023-02-21T03:16:25;99605.47;;;10.85;39.63
5755;BME280;2902;42.130;24.732;2023-02-21T03:18:56;99594.22;;;10.83;39.30
5755;BME280;2902;42.130;24.732;2023-02-21T03:21:28;99609.91;;;10.78;39.71
5755;BME280;2902;42.130;24.732;2023-02-21T03:23:57;99605.84;;;10.82;39.61
5755;BME280;2902;42.130;24.732;2023-02-21T03:26:30;99606.69;;;10.82;40.14
5755;BME280;2902;42.130;24.732;2023-02-21T03:28:58;99607.69;;;10.81;40.25
5755;BME280;2902;42.130;24.732;2023-02-21T03:31:28;99601.31;;;10.76;39.94
5755;BME280;2902;42.130;24.732;2023-02-21T03:33:56;99609.91;;;10.78;39.64
5755;BME280;2902;42.130;24.732;2023-02-21T03:36:23;99608.91;;;10.79;39.81
5755;BME280;2902;42.130;24.732;2023-02-21T03:38:51;99614.22;;;10.79;39.58
5755;BME280;2902;42.130;24.732;2023-02-21T03:41:17;99618.63;;;10.65;39.55
5755;BME280;2902;42.130;24.732;2023-02-21T03:43:44;99617.97;;;10.63;39.87
5755;BME280;2902;42.130;24.732;2023-02-21T03:46:11;99621.88;;;10.67;39.74
5755;BME280;2902;42.130;24.732;2023-02-21T03:48:38;99627.00;;;10.69;39.60
5755;BME280;2902;42.130;24.732;2023-02-21T03:51:05;99618.44;;;10.67;39.43
5755;BME280;2902;42.130;24.732;2023-02-21T03:53:31;99624.16;;;10.70;39.53
5755;BME280;2902;42.130;24.732;2023-02-21T03:55:59;99624.22;;;10.77;39.19
5755;BME280;2902;42.130;24.732;2023-02-21T03:58:26;99640.66;;;10.87;39.48
5755;BME280;2902;42.130;24.732;2023-02-21T04:00:53;99632.69;;;10.87;38.96
5755;BME280;2902;42.130;24.732;2023-02-21T04:03:20;99627.22;;;10.95;38.66
5755;BME280;2902;42.130;24.732;2023-02-21T04:05:46;99625.59;;;11.00;39.07
5755;BME280;2902;42.130;24.732;2023-02-21T04:08:13;99620.72;;;11.04;38.94
5755;BME280;2902;42.130;24.732;2023-02-21T04:10:40;99611.72;;;11.05;38.56
5755;BME280;2902;42.130;24.732;2023-02-21T04:13:08;99610.53;;;11.14;38.85
5755;BME280;2902;42.130;24.732;2023-02-21T04:15:35;99610.91;;;11.11;38.68
5755;BME280;2902;42.130;24.732;2023-02-21T04:18:01;99616.69;;;11.15;38.38
5755;BME280;2902;42.130;24.732;2023-02-21T04:20:28;99610.06;;;10.98;38.50
5755;BME280;2902;42.130;24.732;2023-02-21T04:22:55;99606.34;;;10.92;39.13
5755;BME280;2902;42.130;24.732;2023-02-21T04:25:21;99614.91;;;10.94;38.66
5755;BME280;2902;42.130;24.732;2023-02-21T04:27:48;99609.84;;;10.99;39.02
5755;BME280;2902;42.130;24.732;2023-02-21T04:30:16;99617.03;;;11.05;39.05
5755;BME280;2902;42.130;24.732;2023-02-21T04:32:43;99619.13;;;11.10;39.08
5755;BME280;2902;42.130;24.732;2023-02-21T04:35:10;99625.25;;;11.10;38.59
5755;BME280;2902;42.130;24.732;2023-02-21T04:37:37;99621.56;;;11.11;38.59
5755;BME280;2902;42.130;24.732;2023-02-21T04:40:04;99632.25;;;11.18;38.49
5755;BME280;2902;42.130;24.732;2023-02-21T04:42:31;99626.97;;;11.24;38.22
5755;BME280;2902;42.130;24.732;2023-02-21T04:44:58;99630.22;;;11.26;38.58
5755;BME280;2902;42.130;24.732;2023-02-21T04:47:26;99633.53;;;11.28;38.34
5755;BME280;2902;42.130;24.732;2023-02-21T04:49:52;99631.09;;;11.33;38.45
5755;BME280;2902;42.130;24.732;2023-02-21T04:52:19;99640.09;;;11.32;38.21
5755;BME280;2902;42.130;24.732;2023-02-21T04:54:46;99638.69;;;11.36;38.17
5755;BME280;2902;42.130;24.732;2023-02-21T04:57:13;99633.53;;;11.28;37.90
5755;BME280;2902;42.130;24.732;2023-02-21T04:59:40;99633.53;;;11.28;37.91
5755;BME280;2902;42.130;24.732;2023-02-21T05:02:07;99638.25;;;11.33;37.89
5755;BME280;2902;42.130;24.732;2023-02-21T05:04:36;99643.75;;;11.31;37.85
5755;BME280;2902;42.130;24.732;2023-02-21T05:07:03;99645.81;;;11.29;37.61
5755;BME280;2902;42.130;24.732;2023-02-21T05:09:30;99640.88;;;11.26;38.10
5755;BME280;2902;42.130;24.732;2023-02-21T05:11:57;99636.78;;;11.24;37.98
5755;BME280;2902;42.130;24.732;2023-02-21T05:14:23;99647.78;;;11.21;38.22
5755;BME280;2902;42.130;24.732;2023-02-21T05:16:50;99647.53;;;11.09;38.26
5755;BME280;2902;42.130;24.732;2023-02-21T05:19:18;99647.72;;;11.07;38.50
5755;BME280;2902;42.130;24.732;2023-02-21T05:21:54;99650.75;;;11.04;38.43
5755;BME280;2902;42.130;24.732;2023-02-21T05:24:22;99650.16;;;11.02;38.79
5755;BME280;2902;42.130;24.732;2023-02-21T05:26:49;99652.97;;;10.94;38.46
5755;BME280;2902;42.130;24.732;2023-02-21T05:29:17;99662.38;;;10.97;38.80
5755;BME280;2902;42.130;24.732;2023-02-21T05:31:44;99663.41;;;10.96;38.42
5755;BME280;2902;42.130;24.732;2023-02-21T05:34:11;99658.28;;;10.94;38.68
5755;BME280;2902;42.130;24.732;2023-02-21T05:36:38;99659.47;;;10.92;38.65
5755;BME280;2902;42.130;24.732;2023-02-21T05:39:07;99663.63;;;11.01;38.29
5755;BME280;2902;42.130;24.732;2023-02-21T05:41:34;99665.25;;;11.02;38.57
5755;BME280;2902;42.130;24.732;2023-02-21T05:44:02;99669.38;;;11.04;38.73
5755;BME280;2902;42.130;24.732;2023-02-21T05:46:32;99669.41;;;11.11;38.68
5755;BME280;2902;42.130;24.732;2023-02-21T05:49:00;99670.28;;;11.18;38.14
5755;BME280;2902;42.130;24.732;2023-02-21T05:51:30;99673.53;;;11.14;38.21
5755;BME280;2902;42.130;24.732;2023-02-21T05:53:59;99675.50;;;11.05;38.33
5755;BME280;2902;42.130;24.732;2023-02-21T05:56:27;99670.56;;;11.02;38.42
5755;BME280;2902;42.130;24.732;2023-02-21T05:58:54;99667.50;;;10.98;38.93
5755;BME280;2902;42.130;24.732;2023-02-21T06:01:20;99649.88;;;10.91;38.87
5755;BME280;2902;42.130;24.732;2023-02-21T06:03:47;99670.66;;;11.15;38.78
5755;BME280;2902;42.130;24.732;2023-02-21T06:06:15;99660.81;;;11.09;38.60
5755;BME280;2902;42.130;24.732;2023-02-21T06:08:43;99670.91;;;11.20;38.43
5755;BME280;2902;42.130;24.732;2023-02-21T06:11:10;99663.22;;;11.38;38.70
5755;BME280;2902;42.130;24.732;2023-02-21T06:13:39;99675.75;;;11.44;38.13
5755;BME280;2902;42.130;24.732;2023-02-21T06:16:06;99658.31;;;11.35;38.34
5755;BME280;2902;42.130;24.732;2023-02-21T06:18:33;99657.91;;;11.38;38.46
5755;BME280;2902;42.130;24.732;2023-02-21T06:20:59;99643.00;;;11.44;38.46
5755;BME280;2902;42.130;24.732;2023-02-21T06:23:26;99661.97;;;11.68;37.85
5755;BME280;2902;42.130;24.732;2023-02-21T06:25:53;99668.44;;;11.93;37.30
5755;BME280;2902;42.130;24.732;2023-02-21T06:28:19;99666.19;;;12.10;37.07
5755;BME280;2902;42.130;24.732;2023-02-21T06:30:47;99669.94;;;12.28;41.23
5755;BME280;2902;42.130;24.732;2023-02-21T06:33:14;99662.56;;;12.43;40.87
5755;BME280;2902;42.130;24.732;2023-02-21T06:35:41;99662.56;;;12.69;40.86
5755;BME280;2902;42.130;24.732;2023-02-21T06:38:07;99670.81;;;13.00;38.33
5755;BME280;2902;42.130;24.732;2023-02-21T06:40:34;99665.03;;;13.10;38.14
5755;BME280;2902;42.130;24.732;2023-02-21T06:43:01;99665.59;;;13.31;36.39
5755;BME280;2902;42.130;24.732;2023-02-21T06:45:28;99671.09;;;13.49;36.38
5755;BME280;2902;42.130;24.732;2023-02-21T06:47:56;99662.16;;;13.75;38.06
5755;BME280;2902;42.130;24.732;2023-02-21T06:50:23;99655.88;;;14.00;37.11
5755;BME280;2902;42.130;24.732;2023-02-21T06:52:50;99648.66;;;14.07;39.88
5755;BME280;2902;42.130;24.732;2023-02-21T06:55:19;99666.13;;;14.41;36.26
5755;BME280;2902;42.130;24.732;2023-02-21T06:57:49;99667.22;;;14.64;34.49
5755;BME280;2902;42.130;24.732;2023-02-21T07:00:16;99673.03;;;14.79;37.47
5755;BME280;2902;42.130;24.732;2023-02-21T07:02:43;99667.06;;;15.02;36.69
5755;BME280;2902;42.130;24.732;2023-02-21T07:05:11;99680.72;;;15.18;33.73
5755;BME280;2902;42.130;24.732;2023-02-21T07:07:40;99660.06;;;15.25;33.14
5755;BME280;2902;42.130;24.732;2023-02-21T07:10:07;99655.38;;;15.21;33.13
5755;BME280;2902;42.130;24.732;2023-02-21T07:12:34;99650.66;;;15.16;34.57
5755;BME280;2902;42.130;24.732;2023-02-21T07:15:01;99657.63;;;14.99;33.27
5755;BME280;2902;42.130;24.732;2023-02-21T07:17:28;99650.38;;;15.06;33.91
5755;BME280;2902;42.130;24.732;2023-02-21T07:19:54;99652.06;;;15.01;34.74
5755;BME280;2902;42.130;24.732;2023-02-21T07:22:22;99645.78;;;15.13;33.45
5755;BME280;2902;42.130;24.732;2023-02-21T07:24:51;99647.41;;;15.14;34.35
5755;BME280;2902;42.130;24.732;2023-02-21T07:27:18;99638.03;;;15.05;33.45
5755;BME280;2902;42.130;24.732;2023-02-21T07:29:45;99623.25;;;15.03;34.30
5755;BME280;2902;42.130;24.732;2023-02-21T07:32:12;99636.19;;;15.24;34.19
5755;BME280;2902;42.130;24.732;2023-02-21T07:34:39;99639.59;;;15.37;33.52
5755;BME280;2902;42.130;24.732;2023-02-21T07:37:06;99642.19;;;15.44;34.68
5755;BME280;2902;42.130;24.732;2023-02-21T07:39:34;99637.78;;;15.49;33.27
5755;BME280;2902;42.130;24.732;2023-02-21T07:42:03;99641.94;;;15.63;33.27
5755;BME280;2902;42.130;24.732;2023-02-21T07:44:32;99636.66;;;15.57;34.29
5755;BME280;2902;42.130;24.732;2023-02-21T07:46:59;99643.00;;;15.62;34.49
5755;BME280;2902;42.130;24.732;2023-02-21T07:49:26;99641.03;;;15.69;32.43
5755;BME280;2902;42.130;24.732;2023-02-21T07:51:52;99635.22;;;15.72;34.37
5755;BME280;2902;42.130;24.732;2023-02-21T07:54:19;99630.13;;;15.82;34.16
5755;BME280;2902;42.130;24.732;2023-02-21T07:56:48;99634.34;;;16.08;32.02
5755;BME280;2902;42.130;24.732;2023-02-21T07:59:16;99620.38;;;16.59;44.94
5755;BME280;2902;42.130;24.732;2023-02-21T08:01:43;99627.50;;;17.45;37.28
5755;BME280;2902;42.130;24.732;2023-02-21T08:04:11;99631.16;;;18.07;34.59
5755;BME280;2902;42.130;24.732;2023-02-21T08:06:38;99623.50;;;18.60;32.19
5755;BME280;2902;42.130;24.732;2023-02-21T08:09:04;99625.03;;;19.05;30.46
5755;BME280;2902;42.130;24.732;2023-02-21T08:11:31;99632.56;;;19.63;29.83
5755;BME280;2902;42.130;24.732;2023-02-21T08:14:02;99621.75;;;19.58;27.89
5755;BME280;2902;42.130;24.732;2023-02-21T08:16:29;99616.41;;;19.63;28.50
5755;BME280;2902;42.130;24.732;2023-02-21T08:18:55;99619.19;;;20.16;28.70
5755;BME280;2902;42.130;24.732;2023-02-21T08:21:22;99617.41;;;20.90;30.39
5755;BME280;2902;42.130;24.732;2023-02-21T08:23:51;99610.50;;;21.60;27.41
5755;BME280;2902;42.130;24.732;2023-02-21T08:26:18;99611.22;;;21.36;25.74
5755;BME280;2902;42.130;24.732;2023-02-21T08:28:44;99599.78;;;20.82;26.03
5755;BME280;2902;42.130;24.732;2023-02-21T08:31:13;99598.44;;;21.21;25.82
5755;BME280;2902;42.130;24.732;2023-02-21T08:33:39;99600.16;;;21.37;25.45
5755;BME280;2902;42.130;24.732;2023-02-21T08:36:06;99598.97;;;21.18;25.44
5755;BME280;2902;42.130;24.732;2023-02-21T08:38:33;99595.81;;;21.36;25.41
5755;BME280;2902;42.130;24.732;2023-02-21T08:41:00;99589.03;;;21.29;24.94
5755;BME280;2902;42.130;24.732;2023-02-21T08:43:27;99578.06;;;20.99;25.39
5755;BME280;2902;42.130;24.732;2023-02-21T08:45:54;99571.44;;;20.85;25.80
5755;BME280;2902;42.130;24.732;2023-02-21T08:48:22;99569.50;;;20.75;25.90
5755;BME280;2902;42.130;24.732;2023-02-21T08:50:48;99560.81;;;20.68;25.76
5755;BME280;2902;42.130;24.732;2023-02-21T08:53:16;99553.34;;;20.80;27.64
5755;BME280;2902;42.130;24.732;2023-02-21T08:55:43;99551.09;;;21.09;25.84
5755;BME280;2902;42.130;24.732;2023-02-21T08:58:10;99557.22;;;20.94;27.11
5755;BME280;2902;42.130;24.732;2023-02-21T09:00:38;99547.50;;;20.93;25.67
5755;BME280;2902;42.130;24.732;2023-02-21T09:03:04;99545.16;;;20.70;25.88
5755;BME280;2902;42.130;24.732;2023-02-21T09:05:32;99546.38;;;20.89;26.55
5755;BME280;2902;42.130;24.732;2023-02-21T09:08:00;99542.72;;;21.10;26.81
5755;BME280;2902;42.130;24.732;2023-02-21T09:10:29;99527.31;;;20.64;25.48
5755;BME280;2902;42.130;24.732;2023-02-21T09:12:58;99533.47;;;20.59;25.91
5755;BME280;2902;42.130;24.732;2023-02-21T09:15:25;99540.28;;;20.67;27.46
5755;BME280;2902;42.130;24.732;2023-02-21T09:17:52;99529.91;;;20.49;25.90
5755;BME280;2902;42.130;24.732;2023-02-21T09:20:21;99532.63;;;20.54;27.09
5755;BME280;2902;42.130;24.732;2023-02-21T09:22:49;99540.03;;;20.32;26.58
5755;BME280;2902;42.130;24.732;2023-02-21T09:25:18;99537.38;;;19.84;26.72
5755;BME280;2902;42.130;24.732;2023-02-21T09:27:45;99520.41;;;19.83;27.07
5755;BME280;2902;42.130;24.732;2023-02-21T09:30:14;99528.84;;;19.92;27.33
5755;BME280;2902;42.130;24.732;2023-02-21T09:32:41;99527.38;;;20.06;26.79
5755;BME280;2902;42.130;24.732;2023-02-21T09:35:09;99526.63;;;20.42;27.78
5755;BME280;2902;42.130;24.732;2023-02-21T09:37:38;99520.13;;;20.85;27.97
5755;BME280;2902;42.130;24.732;2023-02-21T09:40:14;99522.19;;;21.09;25.55
5755;BME280;2902;42.130;24.732;2023-02-21T09:42:43;99524.47;;;20.86;25.86
5755;BME280;2902;42.130;24.732;2023-02-21T09:45:13;99528.84;;;20.92;25.93
5755;BME280;2902;42.130;24.732;2023-02-21T09:47:42;99521.38;;;21.09;27.16
5755;BME280;2902;42.130;24.732;2023-02-21T09:50:13;99521.09;;;21.00;25.85
5755;BME280;2902;42.130;24.732;2023-02-21T09:52:41;99508.19;;;21.17;25.42
5755;BME280;2902;42.130;24.732;2023-02-21T09:55:13;99529.91;;;21.47;26.18
5755;BME280;2902;42.130;24.732;2023-02-21T09:57:46;99504.06;;;21.76;25.04
5755;BME280;2902;42.130;24.732;2023-02-21T10:00:17;99519.53;;;22.11;24.79
5755;BME280;2902;42.130;24.732;2023-02-21T10:02:53;99500.84;;;22.44;24.35
5755;BME280;2902;42.130;24.732;2023-02-21T10:05:44;99488.03;;;22.95;24.39
5755;BME280;2902;42.130;24.732;2023-02-21T10:08:18;99479.03;;;23.09;23.57
5755;BME280;2902;42.130;24.732;2023-02-21T10:10:52;99497.09;;;23.34;23.07
5755;BME280;2902;42.130;24.732;2023-02-21T10:13:30;99488.56;;;23.60;23.66
5755;BME280;2902;42.130;24.732;2023-02-21T10:16:04;99478.94;;;23.34;22.72
5755;BME280;2902;42.130;24.732;2023-02-21T10:18:37;99483.88;;;23.17;22.72
5755;BME280;2902;42.130;24.732;2023-02-21T10:21:13;99469.50;;;23.22;23.39
5755;BME280;2902;42.130;24.732;2023-02-21T10:23:44;99476.09;;;23.59;22.87
5755;BME280;2902;42.130;24.732;2023-02-21T10:26:16;99457.56;;;23.71;22.35
5755;BME280;2902;42.130;24.732;2023-02-21T10:28:44;99461.94;;;23.67;22.38
5755;BME280;2902;42.130;24.732;2023-02-21T10:31:15;99455.50;;;23.58;22.89
5755;BME280;2902;42.130;24.732;2023-02-21T10:33:44;99450.66;;;23.89;22.41
5755;BME280;2902;42.130;24.732;2023-02-21T10:36:13;99456.19;;;24.12;22.16
5755;BME280;2902;42.130;24.732;2023-02-21T10:38:49;99449.06;;;24.50;22.74
5755;BME280;2902;42.130;24.732;2023-02-21T10:41:21;99432.91;;;24.58;22.05
5755;BME280;2902;42.130;24.732;2023-02-21T10:43:53;99443.31;;;24.80;21.12
5755;BME280;2902;42.130;24.732;2023-02-21T10:46:27;99426.72;;;24.53;21.31
5755;BME280;2902;42.130;24.732;2023-02-21T10:48:58;99420.97;;;24.02;21.62
5755;BME280;2902;42.130;24.732;2023-02-21T10:51:30;99417.56;;;23.87;21.55
5755;BME280;2902;42.130;24.732;2023-02-21T10:54:16;99416.75;;;24.20;21.58
5755;BME280;2902;42.130;24.732;2023-02-21T10:56:46;99414.09;;;24.15;21.10
5755;BME280;2902;42.130;24.732;2023-02-21T10:59:19;99400.72;;;23.90;22.06
5755;BME280;2902;42.130;24.732;2023-02-21T11:01:47;99412.63;;;24.27;21.69
5755;BME280;2902;42.130;24.732;2023-02-21T11:04:27;99402.59;;;23.94;21.65
5755;BME280;2902;42.130;24.732;2023-02-21T11:06:56;99399.75;;;24.09;21.77
5755;BME280;2902;42.130;24.732;2023-02-21T11:09:32;99383.22;;;24.34;22.11
5755;BME280;2902;42.130;24.732;2023-02-21T11:12:05;99386.03;;;24.24;21.57
5755;BME280;2902;42.130;24.732;2023-02-21T11:14:33;99376.28;;;24.23;22.45
5755;BME280;2902;42.130;24.732;2023-02-21T11:17:12;99379.03;;;24.18;22.29
5755;BME280;2902;42.130;24.732;2023-02-21T11:19:45;99362.59;;;24.33;21.60
5755;BME280;2902;42.130;24.732;2023-02-21T11:22:13;99365.72;;;24.45;21.92
5755;BME280;2902;42.130;24.732;2023-02-21T11:24:49;99366.63;;;24.59;21.03
5755;BME280;2902;42.130;24.732;2023-02-21T11:27:23;99343.84;;;24.08;21.56
5755;BME280;2902;42.130;24.732;2023-02-21T11:29:54;99348.91;;;23.58;21.47
5755;BME280;2902;42.130;24.732;2023-02-21T11:32:33;99338.84;;;23.25;22.19
5755;BME280;2902;42.130;24.732;2023-02-21T11:35:04;99344.28;;;23.25;22.22
5755;BME280;2902;42.130;24.732;2023-02-21T11:37:32;99335.47;;;22.99;22.72
5755;BME280;2902;42.130;24.732;2023-02-21T11:40:00;99331.97;;;22.94;22.70
5755;BME280;2902;42.130;24.732;2023-02-21T11:42:32;99323.09;;;22.88;22.65
5755;BME280;2902;42.130;24.732;2023-02-21T11:45:11;99315.44;;;22.95;22.26
5755;BME280;2902;42.130;24.732;2023-02-21T11:47:45;99307.25;;;23.05;22.06
5755;BME280;2902;42.130;24.732;2023-02-21T11:50:19;99308.47;;;23.28;22.52
5755;BME280;2902;42.130;24.732;2023-02-21T11:52:54;99298.16;;;23.30;22.30
5755;BME280;2902;42.130;24.732;2023-02-21T11:55:23;99294.16;;;23.17;21.93
5755;BME280;2902;42.130;24.732;2023-02-21T11:57:57;99293.34;;;23.17;21.83
5755;BME280;2902;42.130;24.732;2023-02-21T12:00:30;99288.53;;;23.09;22.09
5755;BME280;2902;42.130;24.732;2023-02-21T12:03:17;99275.66;;;22.91;22.02
5755;BME280;2902;42.130;24.732;2023-02-21T12:05:53;99268.91;;;22.83;22.21
5755;BME280;2902;42.130;24.732;2023-02-21T12:08:44;99261.06;;;22.87;22.22
5755;BME280;2902;42.130;24.732;2023-02-21T12:11:21;99272.16;;;22.85;22.32
5755;BME280;2902;42.130;24.732;2023-02-21T12:14:01;99260.31;;;23.15;22.11
5755;BME280;2902;42.130;24.732;2023-02-21T12:16:40;99234.19;;;22.90;22.01
5755;BME280;2902;42.130;24.732;2023-02-21T12:19:23;99243.59;;;23.03;21.50
5755;BME280;2902;42.130;24.732;2023-02-21T12:22:12;99233.31;;;23.00;20.95
5755;BME280;2902;42.130;24.732;2023-02-21T12:24:55;99238.78;;;23.28;20.37
5755;BME280;2902;42.130;24.732;2023-02-21T12:27:31;99233.81;;;23.40;20.08
5755;BME280;2902;42.130;24.732;2023-02-21T12:30:18;99228.72;;;23.34;20.23
5755;BME280;2902;42.130;24.732;2023-02-21T12:32:58;99229.22;;;23.41;19.64
5755;BME280;2902;42.130;24.732;2023-02-21T12:36:03;99219.63;;;23.48;19.92
5755;BME280;2902;42.130;24.732;2023-02-21T12:38:45;99219.25;;;23.31;20.22
5755;BME280;2902;42.130;24.732;2023-02-21T12:44:11;99214.41;;;23.28;19.44
5755;BME280;2902;42.130;24.732;2023-02-21T12:46:44;99207.53;;;23.41;19.18
5755;BME280;2902;42.130;24.732;2023-02-21T12:49:19;99212.53;;;23.52;19.18
5755;BME280;2902;42.130;24.732;2023-02-21T12:51:50;99210.88;;;23.56;18.69
5755;BME280;2902;42.130;24.732;2023-02-21T12:54:22;99218.59;;;23.44;18.92
5755;BME280;2902;42.130;24.732;2023-02-21T12:56:56;99217.53;;;23.40;18.60
5755;BME280;2902;42.130;24.732;2023-02-21T12:59:29;99203.38;;;23.48;18.58
5755;BME280;2902;42.130;24.732;2023-02-21T13:02:03;99207.59;;;23.59;18.75
5755;BME280;2902;42.130;24.732;2023-02-21T13:04:41;99202.47;;;23.58;18.77
5755;BME280;2902;42.130;24.732;2023-02-21T13:07:15;99204.06;;;23.59;18.42
5755;BME280;2902;42.130;24.732;2023-02-21T13:09:54;99206.50;;;23.60;18.46
5755;BME280;2902;42.130;24.732;2023-02-21T13:12:24;99202.47;;;23.58;18.66
5755;BME280;2902;42.130;24.732;2023-02-21T13:14:56;99207.06;;;23.57;18.74
5755;BME280;2902;42.130;24.732;2023-02-21T13:17:26;99197.84;;;23.58;18.55
5755;BME280;2902;42.130;24.732;2023-02-21T13:20:04;99193.81;;;23.56;18.97
5755;BME280;2902;42.130;24.732;2023-02-21T13:25:25;99198.41;;;23.55;19.29
5755;BME280;2902;42.130;24.732;2023-02-21T13:28:00;99196.22;;;23.57;19.33
5755;BME280;2902;42.130;24.732;2023-02-21T13:30:37;99192.53;;;23.48;19.55
5755;BME280;2902;42.130;24.732;2023-02-21T13:33:22;99201.88;;;23.37;19.37
5755;BME280;2902;42.130;24.732;2023-02-21T13:35:50;99200.91;;;23.23;19.59
5755;BME280;2902;42.130;24.732;2023-02-21T13:38:17;99201.00;;;23.08;19.35
5755;BME280;2902;42.130;24.732;2023-02-21T13:40:48;99186.88;;;23.11;19.55
5755;BME280;2902;42.130;24.732;2023-02-21T13:43:21;99191.97;;;23.18;19.94
5755;BME280;2902;42.130;24.732;2023-02-21T13:45:49;99190.91;;;23.19;19.70
5755;BME280;2902;42.130;24.732;2023-02-21T13:48:26;99167.34;;;23.14;19.53
5755;BME280;2902;42.130;24.732;2023-02-21T13:50:55;99176.44;;;23.28;19.77
5755;BME280;2902;42.130;24.732;2023-02-21T13:53:23;99172.66;;;23.29;19.79
5755;BME280;2902;42.130;24.732;2023-02-21T13:56:40;99170.88;;;23.20;19.77